Weather at Priština Adem Jashari International Airport

Public forecast

Using degrees Celsius for public forecast. Weather courtesy of forecast.io.

Current aviation weather report (METAR) for Priština Adem Jashari International Airport

2024/02/25 11:00 (retrieved 18 minutes ago)

BKPR 251100Z 14016KT 9999 FEW072 14/07 Q1013 NOSIG

Aviation forecast (TAF) for Priština Adem Jashari International Airport

2024/02/25 06:00 (retrieved 5 hours ago)

TAF BKPR 250530Z 2506/2606 19008KT 9999 BKN050